createdAt,value
2023-02-27T00:02:20.567Z,5.10
2023-02-27T00:04:48.943Z,5.30
2023-02-27T00:07:17.986Z,4.60
2023-02-27T00:09:46.322Z,5.40
2023-02-27T00:12:14.814Z,5.30
2023-02-27T00:14:43.102Z,4.90
2023-02-27T00:17:11.558Z,5.00
2023-02-27T00:19:39.889Z,5.00
2023-02-27T00:22:08.304Z,5.10
2023-02-27T00:24:36.570Z,5.00
2023-02-27T00:27:04.984Z,5.10
2023-02-27T00:29:33.305Z,5.20
2023-02-27T00:32:01.705Z,5.50
2023-02-27T00:34:30.154Z,5.90
2023-02-27T00:36:58.487Z,6.10
2023-02-27T00:39:26.804Z,4.90
2023-02-27T00:41:55.232Z,5.30
2023-02-27T00:44:23.950Z,5.40
2023-02-27T00:46:52.389Z,5.60
2023-02-27T00:49:21.038Z,4.40
2023-02-27T00:51:49.489Z,5.90
2023-02-27T00:54:18.086Z,5.40
2023-02-27T00:56:46.453Z,5.20
2023-02-27T00:59:15.156Z,6.20
2023-02-27T01:01:44.860Z,5.40
2023-02-27T01:04:13.655Z,4.90
2023-02-27T01:06:42.008Z,4.40
2023-02-27T01:09:10.399Z,4.60
2023-02-27T01:11:38.949Z,5.60
2023-02-27T01:14:07.274Z,4.80
2023-02-27T01:16:36.541Z,5.70
2023-02-27T01:19:05.137Z,6.40
2023-02-27T01:21:33.588Z,6.60
2023-02-27T01:24:02.334Z,5.40
2023-02-27T01:26:30.724Z,5.30
2023-02-27T01:28:59.793Z,5.70
2023-02-27T01:31:28.558Z,5.60
2023-02-27T01:33:57.201Z,6.10
2023-02-27T01:36:25.619Z,5.10
2023-02-27T01:38:53.933Z,5.80
2023-02-27T01:41:22.481Z,5.70
2023-02-27T01:44:09.901Z,6.70
2023-02-27T01:46:39.667Z,5.40
2023-02-27T01:49:32.544Z,5.20
2023-02-27T01:52:06.561Z,6.50
2023-02-27T01:54:40.536Z,5.50
2023-02-27T01:57:09.908Z,5.90
2023-02-27T01:59:41.717Z,5.80
2023-02-27T02:02:22.107Z,6.00
2023-02-27T02:04:51.374Z,5.30
2023-02-27T02:07:22.184Z,5.30
2023-02-27T02:09:55.074Z,6.10
2023-02-27T02:12:34.137Z,5.50
2023-02-27T02:15:04.169Z,6.30
2023-02-27T02:18:19.886Z,6.70
2023-02-27T02:21:29.485Z,5.60
2023-02-27T02:24:34.278Z,5.40
2023-02-27T02:27:26.445Z,5.90
2023-02-27T02:30:25.003Z,5.60
2023-02-27T02:33:11.741Z,5.40
2023-02-27T02:36:17.892Z,6.10
2023-02-27T02:39:17.181Z,6.30
2023-02-27T02:41:48.383Z,5.50
2023-02-27T02:44:41.862Z,5.90
2023-02-27T02:47:22.206Z,5.70
2023-02-27T02:50:05.649Z,5.40
2023-02-27T02:53:09.144Z,5.10
2023-02-27T02:55:52.885Z,5.40
2023-02-27T02:58:37.473Z,5.80
2023-02-27T03:01:15.686Z,5.80
2023-02-27T03:04:10.551Z,5.80
2023-02-27T03:06:56.127Z,5.50
2023-02-27T03:09:42.861Z,5.90
2023-02-27T03:12:16.781Z,5.90
2023-02-27T03:15:03.892Z,6.10
2023-02-27T03:17:43.427Z,6.80
2023-02-27T03:20:18.392Z,6.10
2023-02-27T03:22:52.708Z,5.60
2023-02-27T03:25:25.341Z,5.30
2023-02-27T03:28:01.528Z,6.30
2023-02-27T03:30:53.544Z,6.30
2023-02-27T03:33:29.509Z,5.90
2023-02-27T03:36:19.722Z,5.90
2023-02-27T03:39:18.109Z,7.00
2023-02-27T03:42:34.172Z,5.70
2023-02-27T03:45:26.028Z,6.00
2023-02-27T03:47:54.740Z,5.40
2023-02-27T03:50:23.291Z,5.60
2023-02-27T03:52:51.938Z,6.40
2023-02-27T03:55:35.691Z,5.20
2023-02-27T03:58:05.205Z,5.80
2023-02-27T04:00:34.694Z,6.10
2023-02-27T04:03:05.231Z,5.40
2023-02-27T04:05:34.149Z,6.00
2023-02-27T04:08:46.954Z,6.10
2023-02-27T04:11:30.426Z,6.20
2023-02-27T04:14:29.869Z,6.10
2023-02-27T04:17:27.520Z,6.50
2023-02-27T04:20:26.772Z,6.40
2023-02-27T04:23:18.833Z,7.40
2023-02-27T04:25:52.869Z,7.10
2023-02-27T04:28:48.436Z,6.70
2023-02-27T04:31:31.450Z,7.10
2023-02-27T04:34:36.799Z,7.30
2023-02-27T04:40:02.819Z,8.00
2023-02-27T04:42:35.747Z,7.70
2023-02-27T04:45:09.525Z,6.70
2023-02-27T04:47:48.123Z,7.30
2023-02-27T04:50:27.815Z,7.20
2023-02-27T04:53:12.043Z,8.30
2023-02-27T04:55:50.496Z,8.60
2023-02-27T04:58:25.813Z,9.50
2023-02-27T05:01:03.945Z,10.20
2023-02-27T05:03:41.508Z,8.50
2023-02-27T05:06:11.675Z,9.60
2023-02-27T05:08:50.916Z,8.90
2023-02-27T05:11:41.150Z,8.50
2023-02-27T05:14:31.869Z,8.40
2023-02-27T05:17:09.361Z,7.10
2023-02-27T05:19:42.826Z,8.00
2023-02-27T05:22:40.042Z,8.30
2023-02-27T05:25:30.792Z,8.90
2023-02-27T05:28:21.658Z,7.70
2023-02-27T05:31:02.129Z,9.40
2023-02-27T05:33:39.314Z,8.90
2023-02-27T05:36:38.684Z,8.00
2023-02-27T05:39:11.053Z,8.60
2023-02-27T05:41:50.621Z,7.80
2023-02-27T05:44:28.280Z,8.90
2023-02-27T05:47:02.093Z,8.60
2023-02-27T05:49:49.444Z,9.30
2023-02-27T05:52:23.589Z,9.00
2023-02-27T05:57:47.034Z,9.40
2023-02-27T06:00:26.264Z,8.20
2023-02-27T06:02:54.680Z,8.90
2023-02-27T06:05:25.605Z,8.80
2023-02-27T06:07:53.967Z,8.30
2023-02-27T06:10:22.755Z,8.90
2023-02-27T06:12:51.134Z,9.60
2023-02-27T06:15:19.915Z,8.80
2023-02-27T06:17:48.299Z,8.90
2023-02-27T06:20:17.009Z,8.70
2023-02-27T06:22:45.551Z,8.60
2023-02-27T06:25:14.061Z,8.70
2023-02-27T06:27:42.449Z,9.90
2023-02-27T06:30:11.835Z,8.80
2023-02-27T06:32:40.815Z,9.30
2023-02-27T06:35:09.970Z,8.90
2023-02-27T06:37:38.617Z,8.80
2023-02-27T06:40:14.713Z,8.90
2023-02-27T06:42:45.318Z,9.50
2023-02-27T06:45:15.938Z,7.60
2023-02-27T06:47:45.005Z,8.00
2023-02-27T06:50:14.284Z,8.40
2023-02-27T06:52:42.710Z,9.80
2023-02-27T06:55:12.028Z,8.80
2023-02-27T06:57:40.458Z,9.70
2023-02-27T07:00:11.986Z,8.90
2023-02-27T07:02:40.978Z,10.60
2023-02-27T07:05:12.152Z,9.60
2023-02-27T07:07:41.154Z,9.70
2023-02-27T07:10:13.582Z,10.10
2023-02-27T07:12:42.385Z,10.40
2023-02-27T07:15:11.563Z,10.70
2023-02-27T07:17:40.043Z,10.50
2023-02-27T07:20:10.797Z,9.70
2023-02-27T07:22:40.833Z,9.00
2023-02-27T07:25:10.221Z,11.10
2023-02-27T07:27:38.888Z,11.00
2023-02-27T07:30:10.773Z,10.20
2023-02-27T07:32:39.139Z,10.90
2023-02-27T07:35:08.671Z,12.10
2023-02-27T07:37:37.089Z,11.70
2023-02-27T07:40:07.739Z,11.30
2023-02-27T07:42:36.100Z,12.00
2023-02-27T07:45:06.142Z,11.90
2023-02-27T07:47:34.536Z,11.00
2023-02-27T07:50:04.601Z,12.40
2023-02-27T07:52:33.234Z,11.20
2023-02-27T07:55:01.625Z,11.20
2023-02-27T07:57:29.992Z,10.00
2023-02-27T07:59:59.152Z,11.70
2023-02-27T08:02:27.564Z,11.60
2023-02-27T08:04:56.016Z,10.60
2023-02-27T08:07:25.388Z,11.60
2023-02-27T08:09:54.027Z,11.10
2023-02-27T08:12:22.575Z,10.90
2023-02-27T08:14:51.006Z,12.80
2023-02-27T08:17:19.472Z,10.60
2023-02-27T08:19:47.805Z,11.00
2023-02-27T08:22:16.277Z,11.10
2023-02-27T08:24:44.927Z,11.60
2023-02-27T08:27:13.399Z,12.10
2023-02-27T08:29:43.551Z,12.10
2023-02-27T08:32:12.123Z,11.60
2023-02-27T08:34:40.818Z,12.00
2023-02-27T08:37:09.224Z,15.80
2023-02-27T08:39:37.692Z,15.50
2023-02-27T08:42:07.318Z,14.70
2023-02-27T08:44:35.930Z,12.50
2023-02-27T08:47:04.422Z,13.80
2023-02-27T08:49:32.975Z,12.50
2023-02-27T08:52:01.560Z,13.70
2023-02-27T08:54:30.487Z,11.90
2023-02-27T08:56:59.012Z,12.00
2023-02-27T08:59:27.897Z,12.50
2023-02-27T09:01:56.422Z,12.90
2023-02-27T09:04:25.070Z,12.20
2023-02-27T09:06:57.502Z,11.60
2023-02-27T09:09:25.951Z,12.40
2023-02-27T09:11:54.464Z,10.70
2023-02-27T09:14:23.363Z,12.00
2023-02-27T09:16:51.913Z,12.10
2023-02-27T09:19:20.388Z,12.30
2023-02-27T09:21:48.820Z,11.80
2023-02-27T09:24:20.452Z,11.10
2023-02-27T09:26:49.822Z,10.60
2023-02-27T09:29:18.544Z,10.40
2023-02-27T09:31:47.265Z,10.60
2023-02-27T09:34:15.876Z,10.70
2023-02-27T09:36:44.360Z,11.70
2023-02-27T09:39:12.862Z,12.30
2023-02-27T09:41:55.949Z,11.20
2023-02-27T09:44:45.657Z,11.10
2023-02-27T09:47:30.919Z,11.00
2023-02-27T09:50:17.962Z,11.80
2023-02-27T09:52:46.434Z,12.30
2023-02-27T09:55:21.867Z,10.90
2023-02-27T09:57:57.983Z,11.90
2023-02-27T10:00:44.263Z,11.00
2023-02-27T10:03:56.724Z,11.40
2023-02-27T10:06:44.354Z,10.40
2023-02-27T10:09:30.926Z,9.70
2023-02-27T10:12:24.176Z,11.60
2023-02-27T10:15:15.922Z,11.50
2023-02-27T10:18:26.076Z,10.20
2023-02-27T10:21:16.006Z,11.30
2023-02-27T10:24:07.852Z,11.20
2023-02-27T10:26:41.664Z,11.20
2023-02-27T10:29:34.495Z,10.20
2023-02-27T10:32:09.958Z,10.90
2023-02-27T10:34:42.781Z,10.00
2023-02-27T10:37:17.699Z,9.20
2023-02-27T10:39:52.573Z,9.40
2023-02-27T10:42:23.479Z,9.90
2023-02-27T10:44:53.910Z,8.40
2023-02-27T10:47:25.393Z,8.30
2023-02-27T10:49:55.430Z,7.70
2023-02-27T10:52:23.943Z,7.90
2023-02-27T10:54:53.167Z,8.80
2023-02-27T10:57:36.100Z,7.20
2023-02-27T11:00:22.618Z,7.50
2023-02-27T11:02:54.806Z,8.60
2023-02-27T11:05:33.280Z,8.00
2023-02-27T11:08:22.868Z,8.10
2023-02-27T11:11:09.550Z,8.90
2023-02-27T11:13:45.377Z,13.00
2023-02-27T11:16:16.780Z,16.50
2023-02-27T11:18:48.601Z,17.10
2023-02-27T11:21:30.597Z,13.30
2023-02-27T11:24:20.772Z,8.30
2023-02-27T11:27:03.989Z,14.20
2023-02-27T11:29:35.169Z,12.70
2023-02-27T11:32:13.132Z,14.80
2023-02-27T11:34:50.317Z,17.90
2023-02-27T11:37:32.739Z,15.70
2023-02-27T11:40:19.621Z,8.50
2023-02-27T11:43:05.088Z,14.30
2023-02-27T11:46:10.744Z,7.80
2023-02-27T11:48:49.619Z,17.20
2023-02-27T11:51:41.869Z,17.90
2023-02-27T11:54:19.007Z,17.60
2023-02-27T11:57:27.953Z,11.60
2023-02-27T12:00:16.546Z,21.00
2023-02-27T12:02:58.241Z,19.90
2023-02-27T12:05:32.640Z,22.70
2023-02-27T12:08:18.417Z,20.90
2023-02-27T12:11:01.742Z,16.30
2023-02-27T12:13:41.614Z,12.90
2023-02-27T12:16:51.558Z,13.10
2023-02-27T12:19:47.390Z,10.80
2023-02-27T12:22:32.169Z,14.40
2023-02-27T12:25:12.207Z,18.10
2023-02-27T12:27:53.724Z,12.00
2023-02-27T12:30:27.691Z,15.60
2023-02-27T12:33:22.305Z,14.60
2023-02-27T12:36:03.045Z,17.70
2023-02-27T12:38:32.544Z,19.40
2023-02-27T12:41:14.701Z,19.30
2023-02-27T12:44:07.870Z,19.10
2023-02-27T12:47:45.417Z,20.20
2023-02-27T12:50:23.025Z,21.40
2023-02-27T12:53:19.937Z,19.10
2023-02-27T12:56:06.490Z,20.10
2023-02-27T12:59:03.463Z,21.00
2023-02-27T13:01:59.881Z,21.40
2023-02-27T13:04:43.560Z,22.80
2023-02-27T13:07:37.633Z,16.30
2023-02-27T13:10:27.596Z,23.90
2023-02-27T13:13:09.381Z,25.90
2023-02-27T13:15:49.229Z,25.30
2023-02-27T13:18:30.908Z,24.50
2023-02-27T13:21:31.824Z,24.30
2023-02-27T13:24:16.653Z,18.50
2023-02-27T13:26:58.610Z,24.10
2023-02-27T13:29:39.979Z,23.90
2023-02-27T13:32:43.512Z,21.80
2023-02-27T13:35:49.345Z,24.00
2023-02-27T13:38:34.862Z,23.20
2023-02-27T13:41:21.776Z,24.30
2023-02-27T13:43:53.121Z,17.90
2023-02-27T13:46:47.923Z,23.50
2023-02-27T13:49:29.621Z,23.30
2023-02-27T13:52:05.382Z,20.80
2023-02-27T13:54:40.749Z,17.60
2023-02-27T13:57:22.942Z,18.90
2023-02-27T13:59:55.207Z,21.50
2023-02-27T14:02:59.416Z,20.20
2023-02-27T14:05:43.249Z,21.80
2023-02-27T14:08:37.119Z,22.20
2023-02-27T14:11:18.656Z,18.10
2023-02-27T14:13:54.897Z,20.70
2023-02-27T14:16:41.551Z,19.90
2023-02-27T14:19:15.584Z,16.40
2023-02-27T14:22:12.810Z,17.90
2023-02-27T14:25:02.460Z,24.20
2023-02-27T14:27:51.957Z,20.10
2023-02-27T14:30:32.333Z,21.30
2023-02-27T14:33:12.001Z,22.60
2023-02-27T14:35:45.594Z,25.90
2023-02-27T14:38:20.157Z,24.60
2023-02-27T14:41:31.338Z,19.90
2023-02-27T14:44:00.523Z,25.00
2023-02-27T14:46:41.454Z,23.30
2023-02-27T14:49:30.992Z,21.70
2023-02-27T14:52:29.615Z,18.60
2023-02-27T14:55:30.029Z,22.40
2023-02-27T14:58:00.343Z,16.70
2023-02-27T15:00:35.069Z,17.80
2023-02-27T15:03:24.327Z,16.40
2023-02-27T15:05:57.918Z,18.40
2023-02-27T15:08:32.220Z,20.60
2023-02-27T15:11:02.556Z,19.90
2023-02-27T15:13:36.892Z,22.30
2023-02-27T15:16:23.753Z,19.70
2023-02-27T15:19:13.051Z,17.50
2023-02-27T15:21:50.942Z,18.30
2023-02-27T15:24:40.587Z,15.60
2023-02-27T15:27:21.144Z,17.20
2023-02-27T15:29:59.131Z,14.50
2023-02-27T15:32:41.358Z,10.80
2023-02-27T15:35:16.629Z,15.60
2023-02-27T15:37:52.153Z,14.50
2023-02-27T15:40:26.439Z,16.50
2023-02-27T15:42:56.316Z,15.30
2023-02-27T15:45:36.393Z,16.90
2023-02-27T15:48:05.355Z,14.10
2023-02-27T15:50:38.402Z,16.90
2023-02-27T15:53:25.990Z,15.60
2023-02-27T15:56:06.221Z,13.00
2023-02-27T15:58:39.062Z,14.00
2023-02-27T16:01:20.625Z,18.80
2023-02-27T16:03:53.273Z,16.10
2023-02-27T16:06:33.200Z,15.20
2023-02-27T16:09:19.573Z,14.20
2023-02-27T16:11:48.089Z,14.90
2023-02-27T16:14:39.358Z,16.20
2023-02-27T16:17:28.180Z,15.00
2023-02-27T16:20:01.796Z,16.40
2023-02-27T16:22:30.708Z,19.20
2023-02-27T16:25:18.944Z,22.80
2023-02-27T16:27:51.116Z,19.60
2023-02-27T16:30:19.551Z,21.90
2023-02-27T16:32:47.923Z,15.60
2023-02-27T16:35:20.369Z,13.70
2023-02-27T16:37:50.619Z,13.80
2023-02-27T16:40:23.140Z,12.90
2023-02-27T16:42:53.273Z,12.00
2023-02-27T16:45:27.907Z,11.00
2023-02-27T16:47:59.658Z,11.60
2023-02-27T16:50:38.640Z,10.20
2023-02-27T16:53:08.186Z,10.20
2023-02-27T16:55:41.082Z,10.70
2023-02-27T16:58:17.009Z,10.70
2023-02-27T17:00:45.548Z,9.40
2023-02-27T17:03:14.633Z,11.60
2023-02-27T17:05:43.086Z,10.60
2023-02-27T17:08:11.822Z,10.50
2023-02-27T17:10:40.233Z,11.00
2023-02-27T17:13:08.682Z,10.70
2023-02-27T17:15:36.986Z,11.90
2023-02-27T17:18:07.051Z,12.50
2023-02-27T17:20:36.996Z,12.80
2023-02-27T17:23:05.472Z,11.70
2023-02-27T17:25:34.052Z,11.80
2023-02-27T17:28:02.457Z,14.10
2023-02-27T17:30:30.831Z,10.90
2023-02-27T17:33:00.708Z,13.60
2023-02-27T17:35:32.625Z,11.00
2023-02-27T17:38:01.087Z,10.90
2023-02-27T17:40:29.566Z,13.40
2023-02-27T17:42:57.998Z,11.50
2023-02-27T17:45:27.360Z,10.90
2023-02-27T17:47:55.868Z,10.60
2023-02-27T17:50:24.254Z,11.00
2023-02-27T17:52:52.781Z,12.30
2023-02-27T17:55:21.356Z,10.60
2023-02-27T17:57:49.962Z,12.30
2023-02-27T18:00:18.979Z,14.50
2023-02-27T18:02:48.259Z,13.40
2023-02-27T18:05:17.234Z,12.90
2023-02-27T18:07:45.823Z,11.70
2023-02-27T18:10:14.496Z,11.50
2023-02-27T18:12:43.397Z,13.10
2023-02-27T18:15:11.831Z,13.50
2023-02-27T18:17:40.362Z,13.10
2023-02-27T18:20:10.219Z,10.10
2023-02-27T18:22:38.595Z,11.20
2023-02-27T18:25:07.533Z,11.40
2023-02-27T18:27:36.049Z,12.70
2023-02-27T18:30:05.320Z,11.40
2023-02-27T18:32:33.686Z,11.50
2023-02-27T18:35:02.213Z,11.60
2023-02-27T18:37:30.682Z,10.60
2023-02-27T18:39:59.042Z,9.80
2023-02-27T18:42:27.474Z,10.90
2023-02-27T18:44:55.772Z,11.70
2023-02-27T18:47:24.998Z,10.90
2023-02-27T18:49:53.383Z,10.60
2023-02-27T18:52:21.952Z,13.40
2023-02-27T18:54:50.529Z,13.20
2023-02-27T18:57:19.091Z,10.90
2023-02-27T18:59:47.737Z,12.00
2023-02-27T19:02:21.544Z,12.20
2023-02-27T19:04:50.180Z,13.60
2023-02-27T19:07:19.761Z,13.20
2023-02-27T19:09:48.315Z,16.60
2023-02-27T19:12:17.555Z,13.60
2023-02-27T19:14:45.925Z,12.40
2023-02-27T19:17:14.336Z,12.60
2023-02-27T19:19:42.828Z,13.90
2023-02-27T19:22:11.390Z,14.90
2023-02-27T19:24:39.832Z,10.90
2023-02-27T19:27:08.382Z,11.90
2023-02-27T19:29:36.703Z,12.30
2023-02-27T19:32:07.716Z,12.60
2023-02-27T19:34:36.285Z,13.30
2023-02-27T19:37:04.769Z,12.50
2023-02-27T19:39:33.446Z,13.60
2023-02-27T19:42:01.831Z,12.10
2023-02-27T19:44:30.198Z,11.90
2023-02-27T19:46:58.671Z,11.00
2023-02-27T19:49:27.491Z,12.20
2023-02-27T19:51:55.967Z,11.90
2023-02-27T19:54:24.940Z,10.30
2023-02-27T19:56:54.424Z,12.40
2023-02-27T19:59:24.763Z,10.20
2023-02-27T20:01:53.474Z,9.90
2023-02-27T20:04:21.991Z,11.20
2023-02-27T20:06:53.687Z,11.30
2023-02-27T20:09:23.375Z,10.20
2023-02-27T20:11:56.820Z,9.10
2023-02-27T20:14:25.333Z,10.00
2023-02-27T20:16:54.438Z,10.70
2023-02-27T20:19:24.281Z,12.20
2023-02-27T20:21:54.283Z,12.70
2023-02-27T20:24:24.572Z,12.80
2023-02-27T20:26:54.262Z,10.60
2023-02-27T20:29:25.200Z,11.40
2023-02-27T20:31:55.787Z,12.10
2023-02-27T20:34:26.518Z,11.50
2023-02-27T20:36:56.068Z,10.60
2023-02-27T20:39:25.147Z,10.80
2023-02-27T20:41:53.550Z,12.70
2023-02-27T20:44:22.064Z,10.70
2023-02-27T20:46:50.503Z,11.90
2023-02-27T20:49:18.969Z,11.70
2023-02-27T20:51:47.396Z,11.50
2023-02-27T20:54:20.815Z,11.50
2023-02-27T20:56:54.779Z,11.50
2023-02-27T20:59:25.392Z,10.80
2023-02-27T21:01:54.937Z,10.30
2023-02-27T21:04:42.282Z,11.80
2023-02-27T21:07:13.914Z,10.70
2023-02-27T21:09:42.375Z,11.30
2023-02-27T21:12:11.373Z,11.20
2023-02-27T21:14:40.111Z,12.60
2023-02-27T21:17:08.447Z,11.70
2023-02-27T21:19:39.939Z,11.00
2023-02-27T21:22:11.231Z,11.10
2023-02-27T21:24:39.926Z,10.80
2023-02-27T21:27:08.775Z,11.70
2023-02-27T21:29:37.223Z,11.10
2023-02-27T21:32:05.780Z,12.00
2023-02-27T21:34:34.106Z,11.30
2023-02-27T21:37:03.695Z,11.00
2023-02-27T21:39:32.269Z,11.60
2023-02-27T21:42:00.702Z,10.70
2023-02-27T21:44:29.826Z,10.40
2023-02-27T21:46:59.528Z,9.60
2023-02-27T21:49:31.303Z,11.10
2023-02-27T21:51:59.646Z,10.20
2023-02-27T21:54:28.013Z,10.70
2023-02-27T21:56:58.202Z,11.10
2023-02-27T21:59:26.563Z,10.80
2023-02-27T22:01:56.407Z,11.30
2023-02-27T22:04:25.225Z,10.60
2023-02-27T22:06:53.631Z,10.80
2023-02-27T22:09:22.052Z,9.80
2023-02-27T22:11:50.463Z,10.30
2023-02-27T22:14:18.781Z,9.70
2023-02-27T22:16:47.221Z,10.90
2023-02-27T22:19:22.171Z,10.80
2023-02-27T22:21:50.530Z,11.20
2023-02-27T22:24:18.873Z,10.40
2023-02-27T22:26:49.748Z,10.20
2023-02-27T22:29:18.130Z,10.10
2023-02-27T22:31:46.981Z,10.90
2023-02-27T22:34:18.722Z,10.60
2023-02-27T22:36:52.810Z,10.70
2023-02-27T22:39:21.561Z,9.20
2023-02-27T22:41:50.214Z,12.20
2023-02-27T22:44:18.701Z,11.90
2023-02-27T22:46:49.692Z,12.60
2023-02-27T22:49:23.616Z,11.50
2023-02-27T22:51:52.879Z,13.10
2023-02-27T22:54:22.760Z,12.70
2023-02-27T22:56:53.179Z,14.00
2023-02-27T22:59:21.722Z,13.40
2023-02-27T23:01:50.848Z,15.40
2023-02-27T23:04:21.486Z,15.30
2023-02-27T23:06:52.580Z,14.50
2023-02-27T23:09:24.359Z,16.50
2023-02-27T23:11:54.860Z,16.70
2023-02-27T23:14:23.358Z,16.90
2023-02-27T23:16:51.907Z,17.70
2023-02-27T23:19:22.742Z,18.20
2023-02-27T23:21:51.340Z,16.50
2023-02-27T23:24:20.054Z,13.20
2023-02-27T23:26:52.328Z,10.70
2023-02-27T23:29:21.321Z,9.90
2023-02-27T23:31:50.182Z,11.90
2023-02-27T23:34:18.902Z,10.00
2023-02-27T23:36:47.505Z,10.30
2023-02-27T23:39:15.977Z,11.30
2023-02-27T23:41:44.606Z,11.90
2023-02-27T23:44:13.342Z,9.90
2023-02-27T23:46:41.861Z,10.50
2023-02-27T23:49:11.422Z,9.60
2023-02-27T23:51:40.359Z,10.00
2023-02-27T23:54:09.098Z,10.20
2023-02-27T23:56:37.728Z,10.90
2023-02-27T23:59:07.281Z,10.70
